createdAt,value
2019-02-02T00:00:36.397Z,7.90
2019-02-02T00:01:36.340Z,7.40
2019-02-02T00:02:36.306Z,7.30
2019-02-02T00:03:36.298Z,7.10
2019-02-02T00:04:36.264Z,7.60
2019-02-02T00:05:36.230Z,7.70
2019-02-02T00:06:36.229Z,7.80
2019-02-02T00:07:36.181Z,7.70
2019-02-02T00:08:36.172Z,8.10
2019-02-02T00:09:36.150Z,7.60
2019-02-02T00:10:36.103Z,7.40
2019-02-02T00:11:36.120Z,7.60
2019-02-02T00:12:36.080Z,7.30
2019-02-02T00:13:36.033Z,7.40
2019-02-02T00:14:36.005Z,7.20
2019-02-02T00:15:36.064Z,7.30
2019-02-02T00:16:35.988Z,7.60
2019-02-02T00:17:35.941Z,7.70
2019-02-02T00:18:35.936Z,8.10
2019-02-02T00:19:35.895Z,7.30
2019-02-02T00:20:35.858Z,8.10
2019-02-02T00:21:35.835Z,7.30
2019-02-02T00:22:35.793Z,7.90
2019-02-02T00:23:35.766Z,7.20
2019-02-02T00:24:35.765Z,7.60
2019-02-02T00:25:35.699Z,7.50
2019-02-02T00:26:35.707Z,8.10
2019-02-02T00:27:41.623Z,7.70
2019-02-02T00:28:35.623Z,7.10
2019-02-02T00:29:35.603Z,7.80
2019-02-02T00:30:35.609Z,7.80
2019-02-02T00:31:35.565Z,7.30
2019-02-02T00:32:35.533Z,7.00
2019-02-02T00:33:35.509Z,7.90
2019-02-02T00:34:35.505Z,6.70
2019-02-02T00:35:35.442Z,7.50
2019-02-02T00:36:35.435Z,7.50
2019-02-02T00:37:35.394Z,7.10
2019-02-02T00:38:35.391Z,7.10
2019-02-02T00:39:35.368Z,7.60
2019-02-02T00:40:35.348Z,7.90
2019-02-02T00:41:35.299Z,7.70
2019-02-02T00:42:35.258Z,7.30
2019-02-02T00:43:38.287Z,8.00
2019-02-02T00:44:35.232Z,7.00
2019-02-02T00:45:35.228Z,7.80
2019-02-02T00:46:35.153Z,7.50
2019-02-02T00:47:35.166Z,7.60
2019-02-02T00:48:35.105Z,7.40
2019-02-02T00:49:35.094Z,7.50
2019-02-02T00:50:35.115Z,7.30
2019-02-02T00:51:35.055Z,7.70
2019-02-02T00:52:35.038Z,7.80
2019-02-02T00:53:34.988Z,7.30
2019-02-02T00:54:34.947Z,7.30
2019-02-02T00:55:34.958Z,7.30
2019-02-02T00:56:34.913Z,7.50
2019-02-02T00:57:34.878Z,7.80
2019-02-02T00:58:34.833Z,7.10
2019-02-02T00:59:34.878Z,7.20
2019-02-02T01:00:34.784Z,7.00
2019-02-02T01:01:34.771Z,7.60
2019-02-02T01:02:34.750Z,7.50
2019-02-02T01:03:34.745Z,7.30
2019-02-02T01:04:34.736Z,7.00
2019-02-02T01:05:34.655Z,8.10
2019-02-02T01:06:34.761Z,7.00
2019-02-02T01:07:34.622Z,7.00
2019-02-02T01:08:34.602Z,7.00
2019-02-02T01:09:34.547Z,6.80
2019-02-02T01:10:34.522Z,7.30
2019-02-02T01:11:34.495Z,6.70
2019-02-02T01:12:34.470Z,7.40
2019-02-02T01:13:34.465Z,7.20
2019-02-02T01:14:34.432Z,7.60
2019-02-02T01:15:34.411Z,7.40
2019-02-02T01:16:34.400Z,7.00
2019-02-02T01:17:34.380Z,7.90
2019-02-02T01:18:34.322Z,8.20
2019-02-02T01:19:34.302Z,8.20
2019-02-02T01:20:34.263Z,8.20
2019-02-02T01:21:34.236Z,8.10
2019-02-02T01:22:34.232Z,8.40
2019-02-02T01:23:34.185Z,8.30
2019-02-02T01:24:34.162Z,9.30
2019-02-02T01:25:34.128Z,8.40
2019-02-02T01:26:34.109Z,8.60
2019-02-02T01:27:34.069Z,8.80
2019-02-02T01:28:34.051Z,8.80
2019-02-02T01:29:34.057Z,9.40
2019-02-02T01:30:33.997Z,9.50
2019-02-02T01:31:33.984Z,10.50
2019-02-02T01:32:33.979Z,10.20
2019-02-02T01:33:33.935Z,10.90
2019-02-02T01:34:33.881Z,10.50
2019-02-02T01:35:33.893Z,10.90
2019-02-02T01:36:33.869Z,12.30
2019-02-02T01:37:33.808Z,11.90
2019-02-02T01:38:33.779Z,12.00
2019-02-02T01:39:33.757Z,11.70
2019-02-02T01:40:33.748Z,11.40
2019-02-02T01:41:33.706Z,10.90
2019-02-02T01:42:33.676Z,10.80
2019-02-02T01:43:33.650Z,10.60
2019-02-02T01:44:33.634Z,11.80
2019-02-02T01:45:33.623Z,12.10
2019-02-02T01:46:33.607Z,11.30
2019-02-02T01:47:33.564Z,11.90
2019-02-02T01:48:33.534Z,12.20
2019-02-02T01:49:33.519Z,12.30
2019-02-02T01:50:33.475Z,11.70
2019-02-02T01:51:33.431Z,12.00
2019-02-02T01:52:33.411Z,11.90
2019-02-02T01:53:33.413Z,12.00
2019-02-02T01:54:33.372Z,11.80
2019-02-02T01:55:33.327Z,11.90
2019-02-02T01:56:33.332Z,11.70
2019-02-02T01:57:33.278Z,12.40
2019-02-02T01:58:33.252Z,11.80
2019-02-02T01:59:33.217Z,11.80
2019-02-02T02:00:33.211Z,12.00
2019-02-02T02:01:33.180Z,12.60
2019-02-02T02:02:33.141Z,12.60
2019-02-02T02:03:33.140Z,12.20
2019-02-02T02:04:33.085Z,12.20
2019-02-02T02:05:33.071Z,12.70
2019-02-02T02:06:33.056Z,13.00
2019-02-02T02:07:33.014Z,12.10
2019-02-02T02:08:32.977Z,12.10
2019-02-02T02:09:32.947Z,12.00
2019-02-02T02:10:32.954Z,11.20
2019-02-02T02:11:32.904Z,11.60
2019-02-02T02:12:32.867Z,11.60
2019-02-02T02:13:32.879Z,11.40
2019-02-02T02:14:32.848Z,11.60
2019-02-02T02:15:32.801Z,11.90
2019-02-02T02:16:32.809Z,11.90
2019-02-02T02:17:32.790Z,12.00
2019-02-02T02:18:32.708Z,11.60
2019-02-02T02:19:32.705Z,11.30
2019-02-02T02:20:32.654Z,11.30
2019-02-02T02:21:32.663Z,10.70
2019-02-02T02:22:40.957Z,12.00
2019-02-02T02:23:32.617Z,11.40
2019-02-02T02:24:32.567Z,11.90
2019-02-02T02:25:32.524Z,11.50
2019-02-02T02:26:32.525Z,12.10
2019-02-02T02:27:32.488Z,11.60
2019-02-02T02:28:32.448Z,10.70
2019-02-02T02:29:32.488Z,11.10
2019-02-02T02:30:32.414Z,11.40
2019-02-02T02:31:32.385Z,10.90
2019-02-02T02:32:32.340Z,11.00
2019-02-02T02:33:32.307Z,10.80
2019-02-02T02:34:32.294Z,9.90
2019-02-02T02:35:32.253Z,10.10
2019-02-02T02:36:32.257Z,9.40
2019-02-02T02:37:32.219Z,9.70
2019-02-02T02:38:32.198Z,9.90
2019-02-02T02:39:32.174Z,9.60
2019-02-02T02:40:32.137Z,9.80
2019-02-02T02:41:32.119Z,9.50
2019-02-02T02:42:32.072Z,10.00
2019-02-02T02:43:32.059Z,9.30
2019-02-02T02:44:32.043Z,10.20
2019-02-02T02:45:32.011Z,10.60
2019-02-02T02:46:31.963Z,9.80
2019-02-02T02:47:31.958Z,10.10
2019-02-02T02:48:31.914Z,10.70
2019-02-02T02:49:31.881Z,11.00
2019-02-02T02:50:31.855Z,11.40
2019-02-02T02:51:31.854Z,11.80
2019-02-02T02:52:31.842Z,12.00
2019-02-02T02:53:31.827Z,11.80
2019-02-02T02:54:31.759Z,12.60
2019-02-02T02:55:31.738Z,12.00
2019-02-02T02:56:31.706Z,12.30
2019-02-02T02:57:31.664Z,11.10
2019-02-02T02:58:41.075Z,10.70
2019-02-02T02:59:31.608Z,11.00
2019-02-02T03:00:31.579Z,10.80
2019-02-02T03:01:31.559Z,11.50
2019-02-02T03:02:31.553Z,11.20
2019-02-02T03:03:31.571Z,10.90
2019-02-02T03:04:31.496Z,10.40
2019-02-02T03:05:31.447Z,10.60
2019-02-02T03:06:31.426Z,10.90
2019-02-02T03:07:31.420Z,10.50
2019-02-02T03:08:31.392Z,10.10
2019-02-02T03:09:31.371Z,9.80
2019-02-02T03:10:31.317Z,9.60
2019-02-02T03:11:31.319Z,10.10
2019-02-02T03:12:31.444Z,9.90
2019-02-02T03:13:31.269Z,9.20
2019-02-02T03:14:31.234Z,10.20
2019-02-02T03:15:31.208Z,9.10
2019-02-02T03:16:31.199Z,9.30
2019-02-02T03:17:31.155Z,9.30
2019-02-02T03:18:31.114Z,10.00
2019-02-02T03:19:31.108Z,9.70
2019-02-02T03:20:31.080Z,9.70
2019-02-02T03:21:31.040Z,9.50
2019-02-02T03:22:31.025Z,9.00
2019-02-02T03:23:30.971Z,9.60
2019-02-02T03:24:30.958Z,9.00
2019-02-02T03:25:30.930Z,9.50
2019-02-02T03:26:30.962Z,9.30
2019-02-02T03:27:30.938Z,9.20
2019-02-02T03:28:30.847Z,9.10
2019-02-02T03:29:30.810Z,9.70
2019-02-02T03:30:30.809Z,9.40
2019-02-02T03:31:30.779Z,9.60
2019-02-02T03:32:30.773Z,9.40
2019-02-02T03:33:30.748Z,9.40
2019-02-02T03:34:30.692Z,9.20
2019-02-02T03:35:30.681Z,9.10
2019-02-02T03:36:30.669Z,9.50
2019-02-02T03:37:30.624Z,9.20
2019-02-02T03:38:30.630Z,9.40
2019-02-02T03:39:30.559Z,9.50
2019-02-02T03:40:30.546Z,9.50
2019-02-02T03:41:30.507Z,9.90
2019-02-02T03:42:30.492Z,9.90
2019-02-02T03:43:30.449Z,9.80
2019-02-02T03:44:30.446Z,10.00
2019-02-02T03:45:30.421Z,10.10
2019-02-02T03:46:30.372Z,9.90
2019-02-02T03:47:30.391Z,9.40
2019-02-02T03:48:30.329Z,9.40
2019-02-02T03:49:30.284Z,9.60
2019-02-02T03:50:30.257Z,10.40
2019-02-02T03:51:30.254Z,10.10
2019-02-02T03:52:30.230Z,10.40
2019-02-02T03:53:30.211Z,10.70
2019-02-02T03:54:30.194Z,9.70
2019-02-02T03:55:30.149Z,9.80
2019-02-02T03:56:30.139Z,9.80
2019-02-02T03:57:30.084Z,10.10
2019-02-02T03:58:30.075Z,10.10
2019-02-02T03:59:30.046Z,9.70
2019-02-02T04:00:30.014Z,9.80
2019-02-02T04:01:30.311Z,10.50
2019-02-02T04:02:29.981Z,11.10
2019-02-02T04:03:29.912Z,9.90
2019-02-02T04:04:29.925Z,10.50
2019-02-02T04:05:29.883Z,10.50
2019-02-02T04:06:29.858Z,10.10
2019-02-02T04:07:29.812Z,10.20
2019-02-02T04:08:29.822Z,10.70
2019-02-02T04:09:29.779Z,10.60
2019-02-02T04:10:29.752Z,9.80
2019-02-02T04:11:29.737Z,11.30
2019-02-02T04:12:29.680Z,10.20
2019-02-02T04:13:29.664Z,10.60
2019-02-02T04:14:29.636Z,10.40
2019-02-02T04:15:29.636Z,10.60
2019-02-02T04:16:29.591Z,10.30
2019-02-02T04:17:29.544Z,10.30
2019-02-02T04:18:29.529Z,9.80
2019-02-02T04:19:29.519Z,11.00
2019-02-02T04:20:29.471Z,10.50
2019-02-02T04:21:29.434Z,10.90
2019-02-02T04:22:29.439Z,10.50
2019-02-02T04:23:29.394Z,11.00
2019-02-02T04:24:29.360Z,10.70
2019-02-02T04:25:29.335Z,9.90
2019-02-02T04:26:29.456Z,10.30
2019-02-02T04:27:29.283Z,10.70
2019-02-02T04:28:29.251Z,10.70
2019-02-02T04:29:29.250Z,11.10
2019-02-02T04:30:29.233Z,11.50
2019-02-02T04:31:29.174Z,10.50
2019-02-02T04:32:29.143Z,11.00
2019-02-02T04:33:29.139Z,10.80
2019-02-02T04:34:29.112Z,10.50
2019-02-02T04:35:29.089Z,11.00
2019-02-02T04:36:29.039Z,10.30
2019-02-02T04:37:29.018Z,10.90
2019-02-02T04:38:28.992Z,10.90
2019-02-02T04:39:28.983Z,11.50
2019-02-02T04:40:28.973Z,10.80
2019-02-02T04:41:28.925Z,11.40
2019-02-02T04:42:28.893Z,10.40
2019-02-02T04:43:28.849Z,11.70
2019-02-02T04:44:28.879Z,10.90
2019-02-02T04:45:28.820Z,10.70
2019-02-02T04:46:28.789Z,10.60
2019-02-02T04:47:28.772Z,11.50
2019-02-02T04:48:28.717Z,11.20
2019-02-02T04:49:28.683Z,11.30
2019-02-02T04:50:28.717Z,11.50
2019-02-02T04:51:28.637Z,11.30
2019-02-02T04:52:28.631Z,11.60
2019-02-02T04:53:28.590Z,12.40
2019-02-02T04:54:28.551Z,11.30
2019-02-02T04:55:28.602Z,10.70
2019-02-02T04:56:28.529Z,11.30
2019-02-02T04:57:28.507Z,11.40
2019-02-02T04:58:28.466Z,11.50
2019-02-02T04:59:29.599Z,11.20
2019-02-02T05:00:28.391Z,11.30
2019-02-02T05:01:28.360Z,11.60
2019-02-02T05:02:30.388Z,11.10
2019-02-02T05:03:28.355Z,10.70
2019-02-02T05:04:28.322Z,11.80
2019-02-02T05:05:28.257Z,12.10
2019-02-02T05:06:28.252Z,11.20
2019-02-02T05:07:28.217Z,10.90
2019-02-02T05:08:28.220Z,11.80
2019-02-02T05:09:28.147Z,11.10
2019-02-02T05:10:28.119Z,11.10
2019-02-02T05:11:28.184Z,11.90
2019-02-02T05:12:28.108Z,11.60
2019-02-02T05:13:28.156Z,11.40
2019-02-02T05:14:28.054Z,11.10
2019-02-02T05:15:28.043Z,10.70
2019-02-02T05:16:27.989Z,11.10
2019-02-02T05:17:27.938Z,10.70
2019-02-02T05:18:28.011Z,11.40
2019-02-02T05:19:27.885Z,12.10
2019-02-02T05:20:27.874Z,11.50
2019-02-02T05:21:27.835Z,11.60
2019-02-02T05:22:27.816Z,11.90
2019-02-02T05:23:27.811Z,11.40
2019-02-02T05:24:27.871Z,11.60
2019-02-02T05:25:27.771Z,11.30
2019-02-02T05:26:27.716Z,11.60
2019-02-02T05:27:27.675Z,12.10
2019-02-02T05:28:27.666Z,11.20
2019-02-02T05:29:27.635Z,11.80
2019-02-02T05:30:27.597Z,11.30
2019-02-02T05:31:27.645Z,11.10
2019-02-02T05:32:27.530Z,11.50
2019-02-02T05:33:27.544Z,11.30
2019-02-02T05:34:27.496Z,11.90
2019-02-02T05:35:27.574Z,11.60
2019-02-02T05:36:27.510Z,11.00
2019-02-02T05:37:27.438Z,11.10
2019-02-02T05:38:27.390Z,11.70
2019-02-02T05:39:27.446Z,11.80
2019-02-02T05:40:27.317Z,11.40
2019-02-02T05:41:27.317Z,11.70
2019-02-02T05:42:27.272Z,12.40
2019-02-02T05:43:27.236Z,12.10
2019-02-02T05:44:27.236Z,11.80
2019-02-02T05:45:27.180Z,11.00
2019-02-02T05:46:27.192Z,11.40
2019-02-02T05:47:27.170Z,11.60
2019-02-02T05:48:27.114Z,11.70
2019-02-02T05:49:27.073Z,11.50
2019-02-02T05:50:27.095Z,11.50
2019-02-02T05:51:27.086Z,11.60
2019-02-02T05:52:27.021Z,11.60
2019-02-02T05:53:26.974Z,12.20
2019-02-02T05:54:26.993Z,11.90
2019-02-02T05:55:26.926Z,11.80
2019-02-02T05:56:26.931Z,11.70
2019-02-02T05:57:26.864Z,11.80
2019-02-02T05:58:26.852Z,11.30
2019-02-02T05:59:26.856Z,12.10
2019-02-02T06:00:26.786Z,11.20
2019-02-02T06:01:29.843Z,11.70
2019-02-02T06:02:26.729Z,11.60
2019-02-02T06:03:26.732Z,11.90
2019-02-02T06:04:26.691Z,11.80
2019-02-02T06:05:26.649Z,12.30
2019-02-02T06:06:26.685Z,11.50
2019-02-02T06:07:26.617Z,11.30
2019-02-02T06:08:26.592Z,12.20
2019-02-02T06:09:26.605Z,12.70
2019-02-02T06:10:26.546Z,12.30
2019-02-02T06:11:26.493Z,11.90
2019-02-02T06:12:26.482Z,12.70
2019-02-02T06:13:26.436Z,12.00
2019-02-02T06:14:26.485Z,12.00
2019-02-02T06:15:28.473Z,11.70
2019-02-02T06:16:26.352Z,11.60
2019-02-02T06:17:26.329Z,12.20
2019-02-02T06:18:26.308Z,12.10
2019-02-02T06:19:26.302Z,11.80
2019-02-02T06:20:26.291Z,12.90
2019-02-02T06:21:26.260Z,12.70
2019-02-02T06:22:26.201Z,13.00
2019-02-02T06:23:26.190Z,12.50
2019-02-02T06:24:26.141Z,12.70
2019-02-02T06:25:26.138Z,12.30
2019-02-02T06:26:26.124Z,13.10
2019-02-02T06:27:26.064Z,13.10
2019-02-02T06:28:26.048Z,12.40
2019-02-02T06:29:26.186Z,12.40
2019-02-02T06:30:25.980Z,12.60
2019-02-02T06:31:25.967Z,12.60
2019-02-02T06:32:25.942Z,12.10
2019-02-02T06:33:26.024Z,12.20
2019-02-02T06:34:25.942Z,12.00
2019-02-02T06:35:25.865Z,12.80
2019-02-02T06:36:25.819Z,13.10
2019-02-02T06:37:25.787Z,12.50
2019-02-02T06:38:25.794Z,12.90
2019-02-02T06:39:25.754Z,12.80
2019-02-02T06:40:25.734Z,13.00
2019-02-02T06:41:25.716Z,12.80
2019-02-02T06:42:25.742Z,12.40
2019-02-02T06:43:25.641Z,12.20
2019-02-02T06:44:25.644Z,12.90
2019-02-02T06:45:25.617Z,12.60
2019-02-02T06:46:25.572Z,12.30
2019-02-02T06:47:25.545Z,12.40
2019-02-02T06:48:25.521Z,12.60
2019-02-02T06:49:25.469Z,12.90
2019-02-02T06:50:25.453Z,12.40
2019-02-02T06:51:25.462Z,13.50
2019-02-02T06:52:25.404Z,12.40
2019-02-02T06:53:25.362Z,12.30
2019-02-02T06:54:25.374Z,12.00
2019-02-02T06:55:25.320Z,12.60
2019-02-02T06:56:25.283Z,12.20
2019-02-02T06:57:25.279Z,13.30
2019-02-02T06:58:25.248Z,13.00
2019-02-02T06:59:25.219Z,12.70
2019-02-02T07:00:26.502Z,12.60
2019-02-02T07:01:25.168Z,13.10
2019-02-02T07:02:25.127Z,13.00
2019-02-02T07:03:25.120Z,12.10
2019-02-02T07:04:25.083Z,13.10
2019-02-02T07:05:25.044Z,13.40
2019-02-02T07:06:25.021Z,12.90
2019-02-02T07:07:25.006Z,12.90
2019-02-02T07:08:24.976Z,12.90
2019-02-02T07:09:25.024Z,13.40
2019-02-02T07:10:24.944Z,13.10
2019-02-02T07:11:24.928Z,12.50
2019-02-02T07:12:24.863Z,13.90
2019-02-02T07:13:24.846Z,13.50
2019-02-02T07:14:24.825Z,13.00
2019-02-02T07:15:24.818Z,12.80
2019-02-02T07:16:24.762Z,13.40
2019-02-02T07:17:24.750Z,14.10
2019-02-02T07:18:24.717Z,14.00
2019-02-02T07:19:24.660Z,13.80
2019-02-02T07:20:24.637Z,14.10
2019-02-02T07:21:24.657Z,13.80
2019-02-02T07:22:24.615Z,13.70
2019-02-02T07:23:24.592Z,13.20
2019-02-02T07:24:24.540Z,14.70
2019-02-02T07:25:24.547Z,14.10
2019-02-02T07:26:24.545Z,15.00
2019-02-02T07:27:24.480Z,14.50
2019-02-02T07:28:24.423Z,15.10
2019-02-02T07:29:24.404Z,14.60
2019-02-02T07:30:28.649Z,15.10
2019-02-02T07:31:24.359Z,14.20
2019-02-02T07:32:24.384Z,14.30
2019-02-02T07:33:24.307Z,15.80
2019-02-02T07:34:24.286Z,15.10
2019-02-02T07:35:24.259Z,14.60
2019-02-02T07:36:24.232Z,16.70
2019-02-02T07:37:24.184Z,15.60
2019-02-02T07:38:24.191Z,17.20
2019-02-02T07:39:24.185Z,16.40
2019-02-02T07:40:24.133Z,17.30
2019-02-02T07:41:24.171Z,17.50
2019-02-02T07:42:24.057Z,17.40
2019-02-02T07:43:24.025Z,16.80
2019-02-02T07:44:24.034Z,17.20
2019-02-02T07:45:24.024Z,16.50
2019-02-02T07:46:24.009Z,16.50
2019-02-02T07:47:23.932Z,17.60
2019-02-02T07:48:23.913Z,17.70
2019-02-02T07:49:23.951Z,17.90
2019-02-02T07:50:23.888Z,17.70
2019-02-02T07:51:23.840Z,17.40
2019-02-02T07:52:23.800Z,16.70
2019-02-02T07:53:23.773Z,16.40
2019-02-02T07:54:23.766Z,16.80
2019-02-02T07:55:23.710Z,17.90
2019-02-02T07:56:23.682Z,19.00
2019-02-02T07:57:23.711Z,17.60
2019-02-02T07:58:23.626Z,18.00
2019-02-02T07:59:23.635Z,19.60
2019-02-02T08:00:23.615Z,18.40
2019-02-02T08:01:23.571Z,18.30
2019-02-02T08:02:23.534Z,17.40
2019-02-02T08:03:23.501Z,18.50
2019-02-02T08:04:23.528Z,18.00
2019-02-02T08:05:23.534Z,18.40
2019-02-02T08:06:23.447Z,19.70
2019-02-02T08:07:23.454Z,19.10
2019-02-02T08:08:23.416Z,19.20
2019-02-02T08:09:23.351Z,19.20
2019-02-02T08:10:23.325Z,19.50
2019-02-02T08:11:23.282Z,19.50
2019-02-02T08:12:23.273Z,21.10
2019-02-02T08:13:23.235Z,20.30
2019-02-02T08:14:23.263Z,21.00
2019-02-02T08:15:23.191Z,20.60
2019-02-02T08:16:23.159Z,20.70
2019-02-02T08:17:23.137Z,20.20
2019-02-02T08:18:23.108Z,20.30
2019-02-02T08:19:25.636Z,20.60
2019-02-02T08:20:23.063Z,20.30
2019-02-02T08:21:23.030Z,22.00
2019-02-02T08:22:23.085Z,19.90
2019-02-02T08:23:22.959Z,20.90
2019-02-02T08:24:23.090Z,21.10
2019-02-02T08:25:22.950Z,22.00
2019-02-02T08:26:22.902Z,21.90
2019-02-02T08:27:23.001Z,21.20
2019-02-02T08:28:22.858Z,20.50
2019-02-02T08:29:22.832Z,21.50
2019-02-02T08:30:22.799Z,21.70
2019-02-02T08:31:22.765Z,20.10
2019-02-02T08:32:23.522Z,22.00
2019-02-02T08:33:22.705Z,20.70
2019-02-02T08:34:22.672Z,21.80
2019-02-02T08:35:22.655Z,21.30
2019-02-02T08:36:22.632Z,22.00
2019-02-02T08:37:22.593Z,22.40
2019-02-02T08:38:22.629Z,21.10
2019-02-02T08:39:29.304Z,20.90
2019-02-02T08:40:22.519Z,21.10
2019-02-02T08:41:22.526Z,20.60
2019-02-02T08:42:22.474Z,20.90
2019-02-02T08:43:22.463Z,20.90
2019-02-02T08:44:22.419Z,20.90
2019-02-02T08:45:22.402Z,21.30
2019-02-02T08:46:22.394Z,20.40
2019-02-02T08:47:22.606Z,21.80
2019-02-02T08:48:22.339Z,21.40
2019-02-02T08:49:22.296Z,20.80
2019-02-02T08:50:22.270Z,22.10
2019-02-02T08:51:22.248Z,21.70
2019-02-02T08:52:22.277Z,21.90
2019-02-02T08:53:22.258Z,21.70
2019-02-02T08:54:22.177Z,20.90
2019-02-02T08:55:22.165Z,21.90
2019-02-02T08:56:22.200Z,22.50
2019-02-02T08:57:22.097Z,21.30
2019-02-02T08:58:22.067Z,22.00
2019-02-02T08:59:22.437Z,21.40
2019-02-02T09:00:22.193Z,20.20
2019-02-02T09:01:21.975Z,21.50
2019-02-02T09:02:22.015Z,21.80
2019-02-02T09:03:22.030Z,22.10
2019-02-02T09:04:21.963Z,21.90
2019-02-02T09:05:22.026Z,22.50
2019-02-02T09:06:21.856Z,21.60
2019-02-02T09:07:21.799Z,22.40
2019-02-02T09:08:21.901Z,22.20
2019-02-02T09:09:21.759Z,21.90
2019-02-02T09:10:21.737Z,23.30
2019-02-02T09:11:21.705Z,22.10
2019-02-02T09:12:21.699Z,23.40
2019-02-02T09:13:21.652Z,22.80
2019-02-02T09:14:21.676Z,21.90
2019-02-02T09:15:21.580Z,21.50
2019-02-02T09:16:21.572Z,21.80
2019-02-02T09:17:21.539Z,22.40
2019-02-02T09:18:21.515Z,22.30
2019-02-02T09:19:21.603Z,21.70
2019-02-02T09:20:21.542Z,21.60
2019-02-02T09:21:21.446Z,21.80
2019-02-02T09:22:21.482Z,21.60
2019-02-02T09:23:21.453Z,22.90
2019-02-02T09:24:21.527Z,22.20
2019-02-02T09:25:21.425Z,22.40
2019-02-02T09:26:21.325Z,23.20
2019-02-02T09:27:21.315Z,21.50
2019-02-02T09:28:21.274Z,22.10
2019-02-02T09:29:21.241Z,24.00
2019-02-02T09:30:21.211Z,22.50
2019-02-02T09:31:21.216Z,23.50
2019-02-02T09:32:21.167Z,23.00
2019-02-02T09:33:21.136Z,24.00
2019-02-02T09:34:21.080Z,23.80
2019-02-02T09:35:21.184Z,23.40
2019-02-02T09:36:21.102Z,23.80
2019-02-02T09:37:21.027Z,23.50
2019-02-02T09:38:20.999Z,24.10
2019-02-02T09:39:20.970Z,24.60
2019-02-02T09:40:21.038Z,24.30
2019-02-02T09:41:20.897Z,23.60
2019-02-02T09:42:20.951Z,23.60
2019-02-02T09:43:20.881Z,24.40
2019-02-02T09:44:20.946Z,23.90
2019-02-02T09:45:20.812Z,22.80
2019-02-02T09:46:20.775Z,24.90
2019-02-02T09:47:20.749Z,22.20
2019-02-02T09:48:20.796Z,23.00
2019-02-02T09:49:20.697Z,22.80
2019-02-02T09:50:20.666Z,22.40
2019-02-02T09:51:20.657Z,22.00
2019-02-02T09:52:20.633Z,22.10
2019-02-02T09:53:20.648Z,23.00
2019-02-02T09:54:26.693Z,22.70
2019-02-02T09:55:20.524Z,22.40
2019-02-02T09:56:20.504Z,23.10
2019-02-02T09:57:20.498Z,22.80
2019-02-02T09:58:20.448Z,23.70
2019-02-02T09:59:20.446Z,23.50
2019-02-02T10:00:20.426Z,22.50
2019-02-02T10:01:27.530Z,23.90
2019-02-02T10:02:20.421Z,23.80
2019-02-02T10:03:20.357Z,23.50
2019-02-02T10:04:20.290Z,23.50
2019-02-02T10:05:20.275Z,22.90
2019-02-02T10:06:20.264Z,23.00
2019-02-02T10:07:20.252Z,22.30
2019-02-02T10:08:20.199Z,22.30
2019-02-02T10:09:20.164Z,22.70
2019-02-02T10:10:20.139Z,23.40
2019-02-02T10:11:20.138Z,23.40
2019-02-02T10:12:21.082Z,22.80
2019-02-02T10:13:20.077Z,21.70
2019-02-02T10:14:20.027Z,23.40
2019-02-02T10:15:20.016Z,23.60
2019-02-02T10:16:19.990Z,22.10
2019-02-02T10:17:19.960Z,22.20
2019-02-02T10:18:19.952Z,22.90
2019-02-02T10:19:19.910Z,21.90
2019-02-02T10:20:19.915Z,20.70
2019-02-02T10:21:19.863Z,21.90
2019-02-02T10:22:20.022Z,21.20
2019-02-02T10:23:19.824Z,21.20
2019-02-02T10:24:19.803Z,21.20
2019-02-02T10:25:19.747Z,22.20
2019-02-02T10:26:19.736Z,20.70
2019-02-02T10:27:19.688Z,21.50
2019-02-02T10:28:19.688Z,21.60
2019-02-02T10:29:19.655Z,21.20
2019-02-02T10:30:22.623Z,20.20
2019-02-02T10:31:19.612Z,21.50
2019-02-02T10:32:19.576Z,21.70
2019-02-02T10:33:19.610Z,21.20
2019-02-02T10:34:19.585Z,21.80
2019-02-02T10:35:19.528Z,19.80
2019-02-02T10:36:20.139Z,20.90
2019-02-02T10:37:19.430Z,21.50
2019-02-02T10:38:19.436Z,20.60
2019-02-02T10:39:19.382Z,22.00
2019-02-02T10:40:19.439Z,20.20
2019-02-02T10:41:19.398Z,20.10
2019-02-02T10:42:19.323Z,19.70
2019-02-02T10:43:19.397Z,20.20
2019-02-02T10:44:19.287Z,20.40
2019-02-02T10:45:19.245Z,19.40
2019-02-02T10:46:19.199Z,21.40
2019-02-02T10:47:19.237Z,20.60
2019-02-02T10:48:19.195Z,21.40
2019-02-02T10:49:19.172Z,19.70
2019-02-02T10:50:19.117Z,20.00
2019-02-02T10:51:19.078Z,20.60
2019-02-02T10:52:19.057Z,20.40
2019-02-02T10:53:19.055Z,20.60
2019-02-02T10:54:19.428Z,20.10
2019-02-02T10:55:19.019Z,21.50
2019-02-02T10:56:19.002Z,20.20
2019-02-02T10:57:18.919Z,20.40
2019-02-02T10:58:18.985Z,20.80
2019-02-02T10:59:18.892Z,22.10
2019-02-02T11:00:18.873Z,20.60
2019-02-02T11:01:18.808Z,20.60
2019-02-02T11:02:18.784Z,21.10
2019-02-02T11:03:19.260Z,21.30
2019-02-02T11:04:18.923Z,20.60
2019-02-02T11:05:18.773Z,20.80
2019-02-02T11:06:18.701Z,21.70
2019-02-02T11:07:18.857Z,21.10
2019-02-02T11:08:18.714Z,21.20
2019-02-02T11:09:18.759Z,22.30
2019-02-02T11:10:18.892Z,22.80
2019-02-02T11:11:18.702Z,22.50
2019-02-02T11:12:18.551Z,21.60
2019-02-02T11:13:18.594Z,23.50
2019-02-02T11:14:18.529Z,23.40
2019-02-02T11:15:18.660Z,21.90
2019-02-02T11:16:18.557Z,22.90
2019-02-02T11:17:18.435Z,22.60
2019-02-02T11:18:18.373Z,22.00
2019-02-02T11:19:18.363Z,22.20
2019-02-02T11:20:18.390Z,22.30
2019-02-02T11:21:18.307Z,21.90
2019-02-02T11:22:20.255Z,21.80
2019-02-02T11:23:19.359Z,21.20
2019-02-02T11:24:19.035Z,20.70
2019-02-02T11:25:18.481Z,20.40
2019-02-02T11:26:18.321Z,20.80
2019-02-02T11:27:18.188Z,21.00
2019-02-02T11:28:19.044Z,21.60
2019-02-02T11:29:18.094Z,21.80
2019-02-02T11:30:18.388Z,21.30
2019-02-02T11:31:18.052Z,21.50
2019-02-02T11:32:18.407Z,21.70
2019-02-02T11:33:17.981Z,21.20
2019-02-02T11:34:17.983Z,21.60
2019-02-02T11:35:17.947Z,22.10
2019-02-02T11:36:17.908Z,22.60
2019-02-02T11:37:18.025Z,21.80
2019-02-02T11:38:17.876Z,21.20
2019-02-02T11:39:18.396Z,22.00
2019-02-02T11:40:17.806Z,21.60
2019-02-02T11:41:17.813Z,21.80
2019-02-02T11:42:17.768Z,22.10
2019-02-02T11:43:17.749Z,22.30
2019-02-02T11:44:19.919Z,21.40
2019-02-02T11:45:17.701Z,22.40
2019-02-02T11:46:17.685Z,22.50
2019-02-02T11:47:17.622Z,22.70
2019-02-02T11:48:17.590Z,21.90
2019-02-02T11:49:17.613Z,22.90
2019-02-02T11:50:17.744Z,22.50
2019-02-02T11:51:17.536Z,23.10
2019-02-02T11:52:17.479Z,23.30
2019-02-02T11:53:17.478Z,23.20
2019-02-02T11:54:17.507Z,23.80
2019-02-02T11:55:17.415Z,22.90
2019-02-02T11:56:17.435Z,22.70
2019-02-02T11:57:17.386Z,23.00
2019-02-02T11:58:20.024Z,24.50
2019-02-02T11:59:17.389Z,24.20
2019-02-02T12:00:17.303Z,22.60
2019-02-02T12:01:17.418Z,24.30
2019-02-02T12:02:17.227Z,23.30
2019-02-02T12:03:17.194Z,23.50
2019-02-02T12:04:17.169Z,23.60
2019-02-02T12:05:17.147Z,24.40
2019-02-02T12:06:17.121Z,23.80
2019-02-02T12:07:17.108Z,23.30
2019-02-02T12:08:17.448Z,26.00
2019-02-02T12:09:17.045Z,26.10
2019-02-02T12:10:17.014Z,25.10
2019-02-02T12:11:17.027Z,26.30
2019-02-02T12:12:17.021Z,24.50
2019-02-02T12:13:16.949Z,25.60
2019-02-02T12:14:16.925Z,25.40
2019-02-02T12:15:16.891Z,26.00
2019-02-02T12:16:16.868Z,27.20
2019-02-02T12:17:16.877Z,27.10
2019-02-02T12:18:16.859Z,26.20
2019-02-02T12:19:16.809Z,25.60
2019-02-02T12:20:16.845Z,25.70
2019-02-02T12:21:16.750Z,24.70
2019-02-02T12:22:16.701Z,24.90
2019-02-02T12:23:16.682Z,25.20
2019-02-02T12:25:53.083Z,24.40
2019-02-02T12:26:39.746Z,25.40
2019-02-02T12:27:39.683Z,25.40
2019-02-02T12:28:39.635Z,24.20
2019-02-02T12:29:39.647Z,24.80
2019-02-02T12:32:02.701Z,23.90
2019-02-02T12:33:03.593Z,24.60
2019-02-02T12:34:02.724Z,24.20
2019-02-02T12:35:04.555Z,24.60
2019-02-02T12:37:36.900Z,24.70
2019-02-02T12:38:25.753Z,24.40
2019-02-02T12:39:25.782Z,23.90
2019-02-02T12:40:25.703Z,24.10
2019-02-02T12:41:25.722Z,22.90
2019-02-02T12:42:25.632Z,23.40
2019-02-02T12:43:27.332Z,23.70
2019-02-02T12:44:25.581Z,23.40
2019-02-02T12:45:25.622Z,23.70
2019-02-02T12:46:25.621Z,25.30
2019-02-02T12:47:25.499Z,23.70
2019-02-02T12:49:58.689Z,23.10
2019-02-02T12:51:00.323Z,23.20
2019-02-02T12:52:42.198Z,22.60
2019-02-02T12:53:42.154Z,24.00
2019-02-02T12:54:42.159Z,24.30
2019-02-02T12:55:42.123Z,24.00
2019-02-02T12:58:06.632Z,23.90
2019-02-02T12:59:06.708Z,23.60
2019-02-02T13:00:06.351Z,23.70
2019-02-02T13:01:06.352Z,23.80
2019-02-02T13:02:06.366Z,23.30
2019-02-02T13:03:06.273Z,24.40
2019-02-02T13:04:06.243Z,24.90
2019-02-02T13:05:06.238Z,24.40